sensor_id;sensor_type;location;lat;lon;timestamp;P1;durP1;ratioP1;P2;durP2;ratioP2
14326;SDS011;7247;53.330;-1.180;2023-03-25T00:01:48;9.03;;;1.93;;
14326;SDS011;7247;53.330;-1.180;2023-03-25T00:04:15;10.90;;;2.10;;
14326;SDS011;7247;53.330;-1.180;2023-03-25T00:06:43;12.83;;;2.20;;
14326;SDS011;7247;53.330;-1.180;2023-03-25T00:09:09;11.63;;;2.33;;
14326;SDS011;7247;53.330;-1.180;2023-03-25T00:11:36;10.13;;;2.43;;
14326;SDS011;7247;53.330;-1.180;2023-03-25T00:14:02;10.47;;;2.67;;
14326;SDS011;7247;53.330;-1.180;2023-03-25T00:16:30;9.80;;;2.00;;
14326;SDS011;7247;53.330;-1.180;2023-03-25T00:18:57;12.97;;;2.50;;
14326;SDS011;7247;53.330;-1.180;2023-03-25T00:21:26;9.17;;;1.97;;
14326;SDS011;7247;53.330;-1.180;2023-03-25T00:23:52;12.27;;;2.50;;
14326;SDS011;7247;53.330;-1.180;2023-03-25T00:26:18;9.50;;;2.20;;
14326;SDS011;7247;53.330;-1.180;2023-03-25T00:28:45;10.83;;;2.70;;
14326;SDS011;7247;53.330;-1.180;2023-03-25T00:31:12;9.33;;;2.43;;
14326;SDS011;7247;53.330;-1.180;2023-03-25T00:33:40;5.83;;;1.70;;
14326;SDS011;7247;53.330;-1.180;2023-03-25T00:36:09;7.13;;;2.07;;
14326;SDS011;7247;53.330;-1.180;2023-03-25T00:38:37;8.43;;;2.10;;
14326;SDS011;7247;53.330;-1.180;2023-03-25T00:41:09;10.30;;;1.80;;
14326;SDS011;7247;53.330;-1.180;2023-03-25T00:43:36;9.07;;;1.97;;
14326;SDS011;7247;53.330;-1.180;2023-03-25T00:46:02;8.37;;;1.83;;
14326;SDS011;7247;53.330;-1.180;2023-03-25T00:48:29;7.67;;;2.00;;
14326;SDS011;7247;53.330;-1.180;2023-03-25T00:50:57;9.43;;;2.90;;
14326;SDS011;7247;53.330;-1.180;2023-03-25T00:53:23;8.57;;;2.30;;
14326;SDS011;7247;53.330;-1.180;2023-03-25T00:55:50;8.00;;;1.77;;
14326;SDS011;7247;53.330;-1.180;2023-03-25T00:58:16;5.83;;;1.63;;
14326;SDS011;7247;53.330;-1.180;2023-03-25T01:00:42;7.57;;;1.83;;
14326;SDS011;7247;53.330;-1.180;2023-03-25T01:03:09;6.50;;;1.70;;
14326;SDS011;7247;53.330;-1.180;2023-03-25T01:05:36;9.63;;;1.90;;
14326;SDS011;7247;53.330;-1.180;2023-03-25T01:08:07;7.63;;;2.13;;
14326;SDS011;7247;53.330;-1.180;2023-03-25T01:10:34;8.43;;;2.27;;
14326;SDS011;7247;53.330;-1.180;2023-03-25T01:13:00;7.57;;;1.90;;
14326;SDS011;7247;53.330;-1.180;2023-03-25T01:15:26;7.67;;;1.93;;
14326;SDS011;7247;53.330;-1.180;2023-03-25T01:17:53;6.00;;;1.80;;
14326;SDS011;7247;53.330;-1.180;2023-03-25T01:20:19;5.47;;;1.57;;
14326;SDS011;7247;53.330;-1.180;2023-03-25T01:22:46;6.37;;;1.53;;
14326;SDS011;7247;53.330;-1.180;2023-03-25T01:25:13;5.70;;;1.73;;
14326;SDS011;7247;53.330;-1.180;2023-03-25T01:27:40;3.77;;;1.60;;
14326;SDS011;7247;53.330;-1.180;2023-03-25T01:30:07;7.23;;;1.47;;
14326;SDS011;7247;53.330;-1.180;2023-03-25T01:32:33;7.00;;;1.90;;
14326;SDS011;7247;53.330;-1.180;2023-03-25T01:35:00;3.60;;;1.20;;
14326;SDS011;7247;53.330;-1.180;2023-03-25T01:37:28;6.93;;;1.50;;
14326;SDS011;7247;53.330;-1.180;2023-03-25T01:39:58;5.33;;;1.80;;
14326;SDS011;7247;53.330;-1.180;2023-03-25T01:42:26;6.87;;;1.67;;
14326;SDS011;7247;53.330;-1.180;2023-03-25T01:47:37;5.03;;;1.60;;
14326;SDS011;7247;53.330;-1.180;2023-03-25T01:50:04;4.17;;;1.50;;
14326;SDS011;7247;53.330;-1.180;2023-03-25T01:52:32;5.13;;;1.80;;
14326;SDS011;7247;53.330;-1.180;2023-03-25T01:54:59;8.30;;;1.80;;
14326;SDS011;7247;53.330;-1.180;2023-03-25T01:57:26;4.60;;;1.60;;
14326;SDS011;7247;53.330;-1.180;2023-03-25T01:59:55;5.13;;;1.57;;
14326;SDS011;7247;53.330;-1.180;2023-03-25T02:02:22;5.73;;;1.80;;
14326;SDS011;7247;53.330;-1.180;2023-03-25T02:04:59;7.33;;;1.80;;
14326;SDS011;7247;53.330;-1.180;2023-03-25T02:07:27;6.10;;;1.63;;
14326;SDS011;7247;53.330;-1.180;2023-03-25T02:09:56;5.43;;;1.60;;
14326;SDS011;7247;53.330;-1.180;2023-03-25T02:12:24;5.27;;;1.50;;
14326;SDS011;7247;53.330;-1.180;2023-03-25T02:14:52;5.30;;;1.40;;
14326;SDS011;7247;53.330;-1.180;2023-03-25T02:17:20;5.27;;;1.57;;
14326;SDS011;7247;53.330;-1.180;2023-03-25T02:19:58;7.30;;;1.70;;
14326;SDS011;7247;53.330;-1.180;2023-03-25T02:28:00;6.00;;;1.20;;
14326;SDS011;7247;53.330;-1.180;2023-03-25T02:30:39;6.97;;;1.60;;
14326;SDS011;7247;53.330;-1.180;2023-03-25T02:33:14;6.60;;;2.00;;
14326;SDS011;7247;53.330;-1.180;2023-03-25T02:35:46;4.27;;;1.80;;
14326;SDS011;7247;53.330;-1.180;2023-03-25T02:38:19;5.40;;;1.40;;
14326;SDS011;7247;53.330;-1.180;2023-03-25T02:40:51;6.73;;;1.43;;
14326;SDS011;7247;53.330;-1.180;2023-03-25T02:43:20;6.43;;;1.50;;
14326;SDS011;7247;53.330;-1.180;2023-03-25T02:45:49;5.40;;;1.70;;
14326;SDS011;7247;53.330;-1.180;2023-03-25T02:48:17;2.63;;;1.20;;
14326;SDS011;7247;53.330;-1.180;2023-03-25T02:50:47;2.83;;;1.20;;
14326;SDS011;7247;53.330;-1.180;2023-03-25T02:53:16;7.57;;;1.60;;
14326;SDS011;7247;53.330;-1.180;2023-03-25T02:55:45;5.87;;;1.40;;
14326;SDS011;7247;53.330;-1.180;2023-03-25T02:58:14;5.00;;;1.40;;
14326;SDS011;7247;53.330;-1.180;2023-03-25T03:00:42;5.07;;;1.30;;
14326;SDS011;7247;53.330;-1.180;2023-03-25T03:03:08;5.87;;;1.33;;
14326;SDS011;7247;53.330;-1.180;2023-03-25T03:05:36;3.57;;;1.20;;
14326;SDS011;7247;53.330;-1.180;2023-03-25T03:08:10;5.97;;;1.70;;
14326;SDS011;7247;53.330;-1.180;2023-03-25T03:10:44;2.57;;;1.23;;
14326;SDS011;7247;53.330;-1.180;2023-03-25T03:13:18;5.23;;;1.10;;
14326;SDS011;7247;53.330;-1.180;2023-03-25T03:15:50;5.40;;;1.40;;
14326;SDS011;7247;53.330;-1.180;2023-03-25T03:18:20;3.37;;;1.60;;
14326;SDS011;7247;53.330;-1.180;2023-03-25T03:20:53;3.20;;;1.30;;
14326;SDS011;7247;53.330;-1.180;2023-03-25T03:23:21;3.80;;;1.23;;
14326;SDS011;7247;53.330;-1.180;2023-03-25T03:25:49;5.10;;;1.70;;
14326;SDS011;7247;53.330;-1.180;2023-03-25T03:28:18;3.17;;;1.30;;
14326;SDS011;7247;53.330;-1.180;2023-03-25T03:30:49;4.83;;;1.27;;
14326;SDS011;7247;53.330;-1.180;2023-03-25T03:33:20;3.80;;;1.40;;
14326;SDS011;7247;53.330;-1.180;2023-03-25T03:35:49;3.87;;;1.23;;
14326;SDS011;7247;53.330;-1.180;2023-03-25T03:38:22;3.50;;;1.27;;
14326;SDS011;7247;53.330;-1.180;2023-03-25T03:40:50;4.83;;;1.40;;
14326;SDS011;7247;53.330;-1.180;2023-03-25T03:43:20;4.50;;;1.47;;
14326;SDS011;7247;53.330;-1.180;2023-03-25T03:45:50;6.43;;;1.70;;
14326;SDS011;7247;53.330;-1.180;2023-03-25T03:48:18;4.43;;;1.40;;
14326;SDS011;7247;53.330;-1.180;2023-03-25T03:50:46;5.03;;;1.50;;
14326;SDS011;7247;53.330;-1.180;2023-03-25T03:53:17;5.43;;;1.40;;
14326;SDS011;7247;53.330;-1.180;2023-03-25T03:55:46;3.97;;;1.50;;
14326;SDS011;7247;53.330;-1.180;2023-03-25T03:58:17;6.27;;;1.40;;
14326;SDS011;7247;53.330;-1.180;2023-03-25T04:00:49;6.00;;;1.30;;
14326;SDS011;7247;53.330;-1.180;2023-03-25T04:03:18;4.43;;;1.57;;
14326;SDS011;7247;53.330;-1.180;2023-03-25T04:05:50;3.70;;;1.20;;
14326;SDS011;7247;53.330;-1.180;2023-03-25T04:08:20;3.50;;;1.40;;
14326;SDS011;7247;53.330;-1.180;2023-03-25T04:10:51;3.70;;;1.47;;
14326;SDS011;7247;53.330;-1.180;2023-03-25T04:13:19;3.83;;;1.23;;
14326;SDS011;7247;53.330;-1.180;2023-03-25T04:15:46;5.23;;;1.67;;
14326;SDS011;7247;53.330;-1.180;2023-03-25T04:18:14;5.70;;;1.43;;
14326;SDS011;7247;53.330;-1.180;2023-03-25T04:20:41;4.80;;;1.60;;
14326;SDS011;7247;53.330;-1.180;2023-03-25T04:23:09;4.67;;;1.30;;
14326;SDS011;7247;53.330;-1.180;2023-03-25T04:25:40;3.43;;;1.20;;
14326;SDS011;7247;53.330;-1.180;2023-03-25T04:28:07;3.20;;;1.30;;
14326;SDS011;7247;53.330;-1.180;2023-03-25T04:30:33;3.90;;;1.30;;
14326;SDS011;7247;53.330;-1.180;2023-03-25T04:33:01;3.40;;;1.53;;
14326;SDS011;7247;53.330;-1.180;2023-03-25T04:35:29;4.77;;;1.60;;
14326;SDS011;7247;53.330;-1.180;2023-03-25T04:37:57;4.20;;;1.60;;
14326;SDS011;7247;53.330;-1.180;2023-03-25T04:40:23;7.33;;;2.00;;
14326;SDS011;7247;53.330;-1.180;2023-03-25T04:42:49;4.97;;;1.77;;
14326;SDS011;7247;53.330;-1.180;2023-03-25T04:45:17;9.13;;;2.00;;
14326;SDS011;7247;53.330;-1.180;2023-03-25T04:47:46;6.43;;;2.30;;
14326;SDS011;7247;53.330;-1.180;2023-03-25T04:50:15;6.90;;;1.80;;
14326;SDS011;7247;53.330;-1.180;2023-03-25T04:52:44;4.83;;;1.80;;
14326;SDS011;7247;53.330;-1.180;2023-03-25T04:55:11;7.87;;;2.77;;
14326;SDS011;7247;53.330;-1.180;2023-03-25T04:57:42;4.57;;;1.80;;
14326;SDS011;7247;53.330;-1.180;2023-03-25T05:00:09;3.23;;;1.47;;
14326;SDS011;7247;53.330;-1.180;2023-03-25T05:02:35;4.57;;;1.63;;
14326;SDS011;7247;53.330;-1.180;2023-03-25T05:05:03;6.43;;;1.87;;
14326;SDS011;7247;53.330;-1.180;2023-03-25T05:07:29;4.00;;;1.70;;
14326;SDS011;7247;53.330;-1.180;2023-03-25T05:09:58;3.77;;;1.60;;
14326;SDS011;7247;53.330;-1.180;2023-03-25T05:12:25;3.37;;;1.50;;
14326;SDS011;7247;53.330;-1.180;2023-03-25T05:14:52;4.57;;;1.60;;
14326;SDS011;7247;53.330;-1.180;2023-03-25T05:17:18;3.97;;;1.70;;
14326;SDS011;7247;53.330;-1.180;2023-03-25T05:19:44;5.77;;;1.67;;
14326;SDS011;7247;53.330;-1.180;2023-03-25T05:22:11;5.17;;;1.77;;
14326;SDS011;7247;53.330;-1.180;2023-03-25T05:24:38;5.27;;;2.40;;
14326;SDS011;7247;53.330;-1.180;2023-03-25T05:27:10;6.63;;;2.60;;
14326;SDS011;7247;53.330;-1.180;2023-03-25T05:29:37;7.17;;;2.77;;
14326;SDS011;7247;53.330;-1.180;2023-03-25T05:32:03;6.57;;;2.50;;
14326;SDS011;7247;53.330;-1.180;2023-03-25T05:34:30;9.60;;;3.00;;
14326;SDS011;7247;53.330;-1.180;2023-03-25T05:36:56;7.50;;;2.97;;
14326;SDS011;7247;53.330;-1.180;2023-03-25T05:39:22;7.30;;;2.57;;
14326;SDS011;7247;53.330;-1.180;2023-03-25T05:41:50;6.97;;;2.50;;
14326;SDS011;7247;53.330;-1.180;2023-03-25T05:44:21;7.07;;;2.33;;
14326;SDS011;7247;53.330;-1.180;2023-03-25T05:46:47;4.97;;;2.13;;
14326;SDS011;7247;53.330;-1.180;2023-03-25T05:49:13;7.80;;;2.53;;
14326;SDS011;7247;53.330;-1.180;2023-03-25T05:51:40;7.67;;;2.67;;
14326;SDS011;7247;53.330;-1.180;2023-03-25T05:54:09;7.43;;;2.70;;
14326;SDS011;7247;53.330;-1.180;2023-03-25T05:56:35;6.93;;;2.47;;
14326;SDS011;7247;53.330;-1.180;2023-03-25T05:59:02;6.33;;;2.30;;
14326;SDS011;7247;53.330;-1.180;2023-03-25T06:01:30;5.40;;;2.07;;
14326;SDS011;7247;53.330;-1.180;2023-03-25T06:03:57;6.80;;;2.57;;
14326;SDS011;7247;53.330;-1.180;2023-03-25T06:06:25;9.73;;;2.57;;
14326;SDS011;7247;53.330;-1.180;2023-03-25T06:08:51;6.70;;;2.60;;
14326;SDS011;7247;53.330;-1.180;2023-03-25T06:11:18;8.00;;;3.00;;
14326;SDS011;7247;53.330;-1.180;2023-03-25T06:13:46;9.27;;;2.73;;
14326;SDS011;7247;53.330;-1.180;2023-03-25T06:16:15;5.53;;;2.63;;
14326;SDS011;7247;53.330;-1.180;2023-03-25T06:18:44;5.83;;;2.83;;
14326;SDS011;7247;53.330;-1.180;2023-03-25T06:21:16;10.63;;;3.27;;
14326;SDS011;7247;53.330;-1.180;2023-03-25T06:23:42;5.90;;;2.87;;
14326;SDS011;7247;53.330;-1.180;2023-03-25T06:26:09;11.57;;;3.43;;
14326;SDS011;7247;53.330;-1.180;2023-03-25T06:28:35;10.93;;;3.60;;
14326;SDS011;7247;53.330;-1.180;2023-03-25T06:31:02;11.73;;;3.73;;
14326;SDS011;7247;53.330;-1.180;2023-03-25T06:33:32;8.37;;;3.80;;
14326;SDS011;7247;53.330;-1.180;2023-03-25T06:36:01;7.67;;;3.00;;
14326;SDS011;7247;53.330;-1.180;2023-03-25T06:38:28;8.10;;;3.30;;
14326;SDS011;7247;53.330;-1.180;2023-03-25T06:40:58;8.10;;;2.90;;
14326;SDS011;7247;53.330;-1.180;2023-03-25T06:43:24;7.47;;;3.30;;
14326;SDS011;7247;53.330;-1.180;2023-03-25T06:45:52;10.43;;;3.20;;
14326;SDS011;7247;53.330;-1.180;2023-03-25T06:48:18;9.67;;;2.83;;
14326;SDS011;7247;53.330;-1.180;2023-03-25T06:50:44;8.43;;;2.73;;
14326;SDS011;7247;53.330;-1.180;2023-03-25T06:53:12;12.07;;;2.80;;
14326;SDS011;7247;53.330;-1.180;2023-03-25T06:55:39;9.73;;;2.80;;
14326;SDS011;7247;53.330;-1.180;2023-03-25T06:58:06;10.50;;;2.80;;
14326;SDS011;7247;53.330;-1.180;2023-03-25T07:00:32;7.93;;;2.30;;
14326;SDS011;7247;53.330;-1.180;2023-03-25T07:02:58;10.70;;;2.33;;
14326;SDS011;7247;53.330;-1.180;2023-03-25T07:05:25;10.10;;;2.87;;
14326;SDS011;7247;53.330;-1.180;2023-03-25T07:07:52;9.20;;;2.17;;
14326;SDS011;7247;53.330;-1.180;2023-03-25T07:10:19;10.53;;;2.60;;
14326;SDS011;7247;53.330;-1.180;2023-03-25T07:12:46;10.33;;;2.03;;
14326;SDS011;7247;53.330;-1.180;2023-03-25T07:15:12;4.87;;;1.87;;
14326;SDS011;7247;53.330;-1.180;2023-03-25T07:17:39;7.87;;;2.30;;
14326;SDS011;7247;53.330;-1.180;2023-03-25T07:20:07;9.70;;;2.23;;
14326;SDS011;7247;53.330;-1.180;2023-03-25T07:22:34;9.10;;;2.33;;
14326;SDS011;7247;53.330;-1.180;2023-03-25T07:25:00;6.07;;;1.97;;
14326;SDS011;7247;53.330;-1.180;2023-03-25T07:27:28;12.30;;;2.50;;
14326;SDS011;7247;53.330;-1.180;2023-03-25T07:29:55;9.30;;;2.10;;
14326;SDS011;7247;53.330;-1.180;2023-03-25T07:32:21;9.83;;;2.30;;
14326;SDS011;7247;53.330;-1.180;2023-03-25T07:34:47;9.70;;;2.27;;
14326;SDS011;7247;53.330;-1.180;2023-03-25T07:37:14;8.20;;;2.00;;
14326;SDS011;7247;53.330;-1.180;2023-03-25T07:39:40;7.50;;;2.20;;
14326;SDS011;7247;53.330;-1.180;2023-03-25T07:42:07;10.13;;;2.60;;
14326;SDS011;7247;53.330;-1.180;2023-03-25T07:44:35;7.87;;;2.17;;
14326;SDS011;7247;53.330;-1.180;2023-03-25T07:47:01;8.77;;;2.33;;
14326;SDS011;7247;53.330;-1.180;2023-03-25T07:49:27;7.77;;;2.13;;
14326;SDS011;7247;53.330;-1.180;2023-03-25T07:51:54;8.30;;;2.40;;
14326;SDS011;7247;53.330;-1.180;2023-03-25T07:54:20;9.20;;;2.23;;
14326;SDS011;7247;53.330;-1.180;2023-03-25T07:56:48;10.87;;;2.97;;
14326;SDS011;7247;53.330;-1.180;2023-03-25T07:59:15;12.40;;;2.53;;
14326;SDS011;7247;53.330;-1.180;2023-03-25T08:01:42;8.47;;;2.00;;
14326;SDS011;7247;53.330;-1.180;2023-03-25T08:04:09;7.30;;;2.30;;
14326;SDS011;7247;53.330;-1.180;2023-03-25T08:06:37;12.27;;;2.27;;
14326;SDS011;7247;53.330;-1.180;2023-03-25T08:09:04;8.57;;;2.17;;
14326;SDS011;7247;53.330;-1.180;2023-03-25T08:11:31;7.80;;;2.20;;
14326;SDS011;7247;53.330;-1.180;2023-03-25T08:13:57;8.53;;;1.90;;
14326;SDS011;7247;53.330;-1.180;2023-03-25T08:16:23;7.70;;;2.20;;
14326;SDS011;7247;53.330;-1.180;2023-03-25T08:18:51;8.67;;;2.43;;
14326;SDS011;7247;53.330;-1.180;2023-03-25T08:21:18;9.53;;;2.43;;
14326;SDS011;7247;53.330;-1.180;2023-03-25T08:23:49;5.97;;;2.30;;
14326;SDS011;7247;53.330;-1.180;2023-03-25T08:26:15;7.97;;;2.10;;
14326;SDS011;7247;53.330;-1.180;2023-03-25T08:28:41;8.23;;;2.30;;
14326;SDS011;7247;53.330;-1.180;2023-03-25T08:31:08;8.90;;;2.07;;
14326;SDS011;7247;53.330;-1.180;2023-03-25T08:33:35;7.03;;;2.20;;
14326;SDS011;7247;53.330;-1.180;2023-03-25T08:36:06;8.37;;;2.40;;
14326;SDS011;7247;53.330;-1.180;2023-03-25T08:38:34;8.53;;;2.30;;
14326;SDS011;7247;53.330;-1.180;2023-03-25T08:41:01;5.73;;;2.00;;
14326;SDS011;7247;53.330;-1.180;2023-03-25T08:43:27;7.47;;;2.07;;
14326;SDS011;7247;53.330;-1.180;2023-03-25T08:45:54;7.87;;;2.10;;
14326;SDS011;7247;53.330;-1.180;2023-03-25T08:48:20;5.83;;;2.10;;
14326;SDS011;7247;53.330;-1.180;2023-03-25T08:50:48;4.77;;;1.93;;
14326;SDS011;7247;53.330;-1.180;2023-03-25T08:53:16;9.90;;;2.27;;
14326;SDS011;7247;53.330;-1.180;2023-03-25T08:55:42;8.57;;;2.40;;
14326;SDS011;7247;53.330;-1.180;2023-03-25T08:58:09;7.83;;;2.83;;
14326;SDS011;7247;53.330;-1.180;2023-03-25T09:00:35;9.47;;;2.27;;
14326;SDS011;7247;53.330;-1.180;2023-03-25T09:03:03;8.43;;;2.17;;
14326;SDS011;7247;53.330;-1.180;2023-03-25T09:05:30;7.40;;;2.30;;
14326;SDS011;7247;53.330;-1.180;2023-03-25T09:07:56;6.70;;;1.97;;
14326;SDS011;7247;53.330;-1.180;2023-03-25T09:10:24;7.60;;;2.17;;
14326;SDS011;7247;53.330;-1.180;2023-03-25T09:12:51;7.27;;;2.17;;
14326;SDS011;7247;53.330;-1.180;2023-03-25T09:15:17;9.23;;;2.73;;
14326;SDS011;7247;53.330;-1.180;2023-03-25T09:17:44;9.83;;;1.87;;
14326;SDS011;7247;53.330;-1.180;2023-03-25T09:20:10;5.40;;;1.80;;
14326;SDS011;7247;53.330;-1.180;2023-03-25T09:22:37;8.37;;;2.20;;
14326;SDS011;7247;53.330;-1.180;2023-03-25T09:25:04;7.20;;;1.90;;
14326;SDS011;7247;53.330;-1.180;2023-03-25T09:27:33;7.10;;;2.03;;
14326;SDS011;7247;53.330;-1.180;2023-03-25T09:29:59;8.23;;;2.00;;
14326;SDS011;7247;53.330;-1.180;2023-03-25T09:32:26;8.90;;;2.67;;
14326;SDS011;7247;53.330;-1.180;2023-03-25T09:34:52;8.10;;;1.90;;
14326;SDS011;7247;53.330;-1.180;2023-03-25T09:37:18;6.90;;;1.93;;
14326;SDS011;7247;53.330;-1.180;2023-03-25T09:39:45;9.40;;;2.07;;
14326;SDS011;7247;53.330;-1.180;2023-03-25T09:42:22;9.77;;;2.40;;
14326;SDS011;7247;53.330;-1.180;2023-03-25T09:44:54;7.63;;;1.67;;
14326;SDS011;7247;53.330;-1.180;2023-03-25T09:47:22;6.23;;;1.60;;
14326;SDS011;7247;53.330;-1.180;2023-03-25T09:49:50;4.43;;;1.37;;
14326;SDS011;7247;53.330;-1.180;2023-03-25T09:52:19;4.77;;;1.60;;
14326;SDS011;7247;53.330;-1.180;2023-03-25T09:54:49;6.37;;;1.40;;
14326;SDS011;7247;53.330;-1.180;2023-03-25T09:57:17;4.27;;;1.83;;
14326;SDS011;7247;53.330;-1.180;2023-03-25T09:59:46;6.83;;;1.80;;
14326;SDS011;7247;53.330;-1.180;2023-03-25T10:02:18;5.20;;;1.60;;
14326;SDS011;7247;53.330;-1.180;2023-03-25T10:04:53;6.13;;;1.53;;
14326;SDS011;7247;53.330;-1.180;2023-03-25T10:07:28;6.17;;;1.70;;
14326;SDS011;7247;53.330;-1.180;2023-03-25T10:09:59;4.47;;;1.60;;
14326;SDS011;7247;53.330;-1.180;2023-03-25T10:12:31;6.13;;;1.70;;
14326;SDS011;7247;53.330;-1.180;2023-03-25T10:15:02;5.60;;;1.70;;
14326;SDS011;7247;53.330;-1.180;2023-03-25T10:17:33;2.47;;;1.30;;
14326;SDS011;7247;53.330;-1.180;2023-03-25T10:20:03;5.07;;;1.73;;
14326;SDS011;7247;53.330;-1.180;2023-03-25T10:22:32;6.87;;;1.80;;
14326;SDS011;7247;53.330;-1.180;2023-03-25T10:25:02;7.53;;;1.43;;
14326;SDS011;7247;53.330;-1.180;2023-03-25T10:27:31;5.47;;;1.60;;
14326;SDS011;7247;53.330;-1.180;2023-03-25T10:30:01;6.80;;;1.83;;
14326;SDS011;7247;53.330;-1.180;2023-03-25T10:32:30;6.87;;;1.80;;
14326;SDS011;7247;53.330;-1.180;2023-03-25T10:34:58;5.03;;;1.67;;
14326;SDS011;7247;53.330;-1.180;2023-03-25T10:37:29;4.73;;;1.60;;
14326;SDS011;7247;53.330;-1.180;2023-03-25T10:39:56;5.60;;;1.53;;
14326;SDS011;7247;53.330;-1.180;2023-03-25T10:42:25;6.20;;;1.60;;
14326;SDS011;7247;53.330;-1.180;2023-03-25T10:44:52;4.70;;;1.60;;
14326;SDS011;7247;53.330;-1.180;2023-03-25T10:47:19;6.00;;;1.70;;
14326;SDS011;7247;53.330;-1.180;2023-03-25T10:49:47;5.07;;;1.63;;
14326;SDS011;7247;53.330;-1.180;2023-03-25T10:52:16;4.63;;;1.20;;
14326;SDS011;7247;53.330;-1.180;2023-03-25T10:54:44;5.57;;;1.40;;
14326;SDS011;7247;53.330;-1.180;2023-03-25T10:57:13;4.10;;;1.57;;
14326;SDS011;7247;53.330;-1.180;2023-03-25T10:59:41;4.27;;;1.40;;
14326;SDS011;7247;53.330;-1.180;2023-03-25T11:02:11;2.73;;;1.30;;
14326;SDS011;7247;53.330;-1.180;2023-03-25T11:04:40;5.23;;;1.50;;
14326;SDS011;7247;53.330;-1.180;2023-03-25T11:07:10;6.43;;;1.50;;
14326;SDS011;7247;53.330;-1.180;2023-03-25T11:09:40;6.83;;;1.47;;
14326;SDS011;7247;53.330;-1.180;2023-03-25T11:12:06;4.93;;;1.43;;
14326;SDS011;7247;53.330;-1.180;2023-03-25T11:14:35;3.00;;;1.43;;
14326;SDS011;7247;53.330;-1.180;2023-03-25T11:17:03;4.43;;;1.40;;
14326;SDS011;7247;53.330;-1.180;2023-03-25T11:19:36;5.87;;;1.70;;
14326;SDS011;7247;53.330;-1.180;2023-03-25T11:22:06;7.57;;;1.60;;
14326;SDS011;7247;53.330;-1.180;2023-03-25T11:24:33;4.07;;;1.27;;
14326;SDS011;7247;53.330;-1.180;2023-03-25T11:27:06;6.37;;;1.40;;
14326;SDS011;7247;53.330;-1.180;2023-03-25T11:29:33;3.57;;;1.40;;
14326;SDS011;7247;53.330;-1.180;2023-03-25T11:32:05;5.17;;;1.40;;
14326;SDS011;7247;53.330;-1.180;2023-03-25T11:34:31;4.13;;;1.30;;
14326;SDS011;7247;53.330;-1.180;2023-03-25T11:36:59;4.43;;;1.40;;
14326;SDS011;7247;53.330;-1.180;2023-03-25T11:39:28;4.00;;;1.07;;
14326;SDS011;7247;53.330;-1.180;2023-03-25T11:41:54;5.57;;;1.53;;
14326;SDS011;7247;53.330;-1.180;2023-03-25T11:44:24;4.57;;;1.50;;
14326;SDS011;7247;53.330;-1.180;2023-03-25T11:46:54;4.63;;;1.90;;
14326;SDS011;7247;53.330;-1.180;2023-03-25T11:49:21;4.40;;;1.47;;
14326;SDS011;7247;53.330;-1.180;2023-03-25T11:51:48;5.40;;;1.60;;
14326;SDS011;7247;53.330;-1.180;2023-03-25T11:54:15;3.83;;;1.70;;
14326;SDS011;7247;53.330;-1.180;2023-03-25T11:56:43;14.83;;;2.10;;
14326;SDS011;7247;53.330;-1.180;2023-03-25T11:59:16;4.20;;;1.27;;
14326;SDS011;7247;53.330;-1.180;2023-03-25T12:01:45;5.17;;;1.50;;
14326;SDS011;7247;53.330;-1.180;2023-03-25T12:04:13;4.57;;;1.63;;
14326;SDS011;7247;53.330;-1.180;2023-03-25T12:06:53;3.57;;;1.27;;
14326;SDS011;7247;53.330;-1.180;2023-03-25T12:09:21;2.87;;;1.33;;
14326;SDS011;7247;53.330;-1.180;2023-03-25T12:11:49;6.10;;;1.77;;
14326;SDS011;7247;53.330;-1.180;2023-03-25T12:14:20;4.47;;;1.20;;
14326;SDS011;7247;53.330;-1.180;2023-03-25T12:16:51;5.30;;;1.60;;
14326;SDS011;7247;53.330;-1.180;2023-03-25T12:19:22;5.27;;;1.50;;
14326;SDS011;7247;53.330;-1.180;2023-03-25T12:21:58;6.73;;;1.70;;
14326;SDS011;7247;53.330;-1.180;2023-03-25T12:24:31;4.47;;;1.67;;
14326;SDS011;7247;53.330;-1.180;2023-03-25T12:27:03;4.73;;;1.60;;
14326;SDS011;7247;53.330;-1.180;2023-03-25T12:29:34;4.37;;;1.70;;
14326;SDS011;7247;53.330;-1.180;2023-03-25T12:32:06;2.37;;;1.20;;
14326;SDS011;7247;53.330;-1.180;2023-03-25T12:34:38;3.73;;;1.50;;
14326;SDS011;7247;53.330;-1.180;2023-03-25T12:37:10;2.83;;;1.40;;
14326;SDS011;7247;53.330;-1.180;2023-03-25T12:39:43;2.80;;;1.30;;
14326;SDS011;7247;53.330;-1.180;2023-03-25T12:42:16;5.23;;;1.30;;
14326;SDS011;7247;53.330;-1.180;2023-03-25T12:44:50;3.37;;;1.60;;
14326;SDS011;7247;53.330;-1.180;2023-03-25T12:47:23;6.33;;;2.10;;
14326;SDS011;7247;53.330;-1.180;2023-03-25T12:50:03;4.20;;;1.10;;
14326;SDS011;7247;53.330;-1.180;2023-03-25T12:52:34;3.97;;;1.13;;
14326;SDS011;7247;53.330;-1.180;2023-03-25T12:55:12;4.03;;;1.13;;
14326;SDS011;7247;53.330;-1.180;2023-03-25T12:57:46;2.70;;;1.30;;
14326;SDS011;7247;53.330;-1.180;2023-03-25T13:00:21;5.03;;;1.30;;
14326;SDS011;7247;53.330;-1.180;2023-03-25T13:03:02;3.63;;;1.27;;
14326;SDS011;7247;53.330;-1.180;2023-03-25T13:05:31;5.23;;;1.40;;
14326;SDS011;7247;53.330;-1.180;2023-03-25T13:08:03;3.63;;;1.30;;
14326;SDS011;7247;53.330;-1.180;2023-03-25T13:10:33;4.27;;;1.20;;
14326;SDS011;7247;53.330;-1.180;2023-03-25T13:13:00;3.77;;;1.40;;
14326;SDS011;7247;53.330;-1.180;2023-03-25T13:15:30;3.80;;;1.20;;
14326;SDS011;7247;53.330;-1.180;2023-03-25T13:17:58;2.70;;;1.20;;
14326;SDS011;7247;53.330;-1.180;2023-03-25T13:20:28;2.87;;;1.40;;
14326;SDS011;7247;53.330;-1.180;2023-03-25T13:22:57;5.47;;;1.47;;
14326;SDS011;7247;53.330;-1.180;2023-03-25T13:25:26;3.73;;;1.30;;
14326;SDS011;7247;53.330;-1.180;2023-03-25T13:27:54;4.13;;;1.30;;
14326;SDS011;7247;53.330;-1.180;2023-03-25T13:30:25;5.87;;;1.53;;
14326;SDS011;7247;53.330;-1.180;2023-03-25T13:32:53;2.53;;;1.00;;
14326;SDS011;7247;53.330;-1.180;2023-03-25T13:35:23;3.87;;;1.30;;
14326;SDS011;7247;53.330;-1.180;2023-03-25T13:37:53;4.57;;;1.80;;
14326;SDS011;7247;53.330;-1.180;2023-03-25T13:40:25;4.47;;;1.37;;
14326;SDS011;7247;53.330;-1.180;2023-03-25T13:42:52;3.43;;;1.10;;
14326;SDS011;7247;53.330;-1.180;2023-03-25T13:45:21;4.38;;;1.60;;
14326;SDS011;7247;53.330;-1.180;2023-03-25T13:47:49;4.68;;;1.55;;
14326;SDS011;7247;53.330;-1.180;2023-03-25T13:50:19;3.65;;;1.40;;
14326;SDS011;7247;53.330;-1.180;2023-03-25T13:52:50;1.93;;;0.90;;
14326;SDS011;7247;53.330;-1.180;2023-03-25T13:55:21;3.37;;;1.30;;
14326;SDS011;7247;53.330;-1.180;2023-03-25T14:00:44;1.10;;;0.70;;
14326;SDS011;7247;53.330;-1.180;2023-03-25T14:03:24;3.80;;;1.20;;
14326;SDS011;7247;53.330;-1.180;2023-03-25T14:06:10;2.40;;;1.10;;
14326;SDS011;7247;53.330;-1.180;2023-03-25T14:08:54;3.30;;;1.33;;
14326;SDS011;7247;53.330;-1.180;2023-03-25T14:11:27;3.70;;;1.50;;
14326;SDS011;7247;53.330;-1.180;2023-03-25T14:13:55;2.30;;;0.93;;
14326;SDS011;7247;53.330;-1.180;2023-03-25T14:16:23;3.77;;;1.20;;
14326;SDS011;7247;53.330;-1.180;2023-03-25T14:18:52;3.10;;;1.27;;
14326;SDS011;7247;53.330;-1.180;2023-03-25T14:21:27;2.17;;;1.17;;
14326;SDS011;7247;53.330;-1.180;2023-03-25T14:24:04;1.83;;;1.17;;
14326;SDS011;7247;53.330;-1.180;2023-03-25T14:26:33;1.30;;;0.70;;
14326;SDS011;7247;53.330;-1.180;2023-03-25T14:29:04;2.50;;;1.10;;
14326;SDS011;7247;53.330;-1.180;2023-03-25T14:31:31;3.97;;;1.00;;
14326;SDS011;7247;53.330;-1.180;2023-03-25T14:34:11;2.37;;;0.93;;
14326;SDS011;7247;53.330;-1.180;2023-03-25T14:42:07;2.40;;;1.03;;
14326;SDS011;7247;53.330;-1.180;2023-03-25T14:44:36;2.37;;;1.07;;
14326;SDS011;7247;53.330;-1.180;2023-03-25T14:49:51;2.17;;;0.90;;
14326;SDS011;7247;53.330;-1.180;2023-03-25T14:52:21;2.53;;;1.07;;
14326;SDS011;7247;53.330;-1.180;2023-03-25T14:54:51;1.90;;;0.93;;
14326;SDS011;7247;53.330;-1.180;2023-03-25T14:57:21;4.30;;;0.90;;
14326;SDS011;7247;53.330;-1.180;2023-03-25T14:59:49;3.00;;;1.20;;
14326;SDS011;7247;53.330;-1.180;2023-03-25T15:02:20;1.20;;;0.80;;
14326;SDS011;7247;53.330;-1.180;2023-03-25T15:04:50;2.20;;;0.87;;
14326;SDS011;7247;53.330;-1.180;2023-03-25T15:07:17;1.00;;;0.80;;
14326;SDS011;7247;53.330;-1.180;2023-03-25T15:09:49;3.00;;;0.90;;
14326;SDS011;7247;53.330;-1.180;2023-03-25T15:12:17;1.63;;;1.00;;
14326;SDS011;7247;53.330;-1.180;2023-03-25T15:14:47;1.97;;;1.10;;